createdAt,value
2022-11-01T00:02:13.690Z,9.65
2022-11-01T00:05:05.750Z,9.40
2022-11-01T00:07:41.638Z,9.20
2022-11-01T00:10:13.767Z,9.70
2022-11-01T00:12:53.646Z,9.60
2022-11-01T00:15:32.372Z,9.48
2022-11-01T00:18:02.692Z,9.52
2022-11-01T00:20:31.889Z,9.95
2022-11-01T00:23:04.333Z,8.93
2022-11-01T00:25:37.072Z,9.63
2022-11-01T00:28:05.956Z,10.13
2022-11-01T00:30:49.081Z,9.63
2022-11-01T00:33:19.185Z,9.52
2022-11-01T00:35:49.577Z,9.98
2022-11-01T00:38:22.448Z,9.35
2022-11-01T00:40:51.242Z,8.95
2022-11-01T00:43:20.410Z,8.85
2022-11-01T00:45:52.609Z,9.13
2022-11-01T00:48:23.293Z,9.00
2022-11-01T00:50:55.018Z,8.68
2022-11-01T00:53:29.811Z,9.13
2022-11-01T00:56:03.573Z,9.05
2022-11-01T00:58:33.572Z,9.23
2022-11-01T01:01:04.339Z,9.10
2022-11-01T01:03:41.249Z,8.80
2022-11-01T01:06:11.269Z,8.32
2022-11-01T01:08:40.100Z,8.60
2022-11-01T01:11:11.650Z,8.23
2022-11-01T01:13:41.245Z,8.20
2022-11-01T01:19:11.505Z,8.07
2022-11-01T01:21:46.254Z,8.40
2022-11-01T01:24:16.759Z,8.15
2022-11-01T01:26:45.616Z,7.70
2022-11-01T01:29:17.850Z,8.43
2022-11-01T01:31:55.436Z,8.55
2022-11-01T01:34:28.075Z,8.43
2022-11-01T01:36:56.630Z,8.02
2022-11-01T01:39:25.561Z,8.40
2022-11-01T01:42:00.274Z,7.78
2022-11-01T01:45:20.840Z,7.40
2022-11-01T01:48:00.919Z,7.75
2022-11-01T01:50:37.454Z,7.95
2022-11-01T01:53:10.877Z,7.13
2022-11-01T01:55:49.286Z,7.78
2022-11-01T01:58:25.111Z,7.50
2022-11-01T02:00:56.273Z,7.55
2022-11-01T02:03:31.593Z,7.45
2022-11-01T02:06:07.874Z,6.70
2022-11-01T02:08:41.839Z,6.97
2022-11-01T02:11:19.848Z,7.18
2022-11-01T02:13:48.300Z,6.68
2022-11-01T02:16:48.786Z,6.57
2022-11-01T02:20:09.965Z,6.30
2022-11-01T02:23:08.512Z,6.47
2022-11-01T02:26:08.635Z,5.95
2022-11-01T02:28:55.485Z,5.60
2022-11-01T02:32:11.183Z,5.38
2022-11-01T02:34:46.785Z,5.47
2022-11-01T02:37:20.879Z,6.00
2022-11-01T02:39:55.933Z,5.57
2022-11-01T02:42:32.263Z,6.45
2022-11-01T02:45:09.829Z,5.57
2022-11-01T02:47:41.043Z,5.00
2022-11-01T02:50:15.887Z,5.13
2022-11-01T02:52:46.187Z,4.32
2022-11-01T02:55:31.423Z,4.40
2022-11-01T02:58:03.622Z,4.22
2022-11-01T03:00:39.968Z,3.65
2022-11-01T03:03:22.821Z,3.30
2022-11-01T03:06:22.172Z,2.50
2022-11-01T03:08:55.495Z,2.22
2022-11-01T03:12:06.073Z,2.75
2022-11-01T03:15:05.450Z,2.25
2022-11-01T03:18:03.942Z,2.20
2022-11-01T03:21:15.335Z,2.75
2022-11-01T03:24:15.915Z,1.92
2022-11-01T03:26:57.463Z,2.10
2022-11-01T03:29:33.564Z,1.60
2022-11-01T03:32:10.257Z,1.70
2022-11-01T03:35:01.068Z,1.15
2022-11-01T03:37:34.461Z,1.50
2022-11-01T03:40:10.007Z,1.17
2022-11-01T03:42:42.817Z,1.40
2022-11-01T03:45:15.145Z,1.45
2022-11-01T03:47:47.469Z,2.03
2022-11-01T03:50:23.076Z,1.60
2022-11-01T03:53:07.949Z,1.70
2022-11-01T03:55:40.385Z,1.60
2022-11-01T03:58:16.373Z,1.67
2022-11-01T04:00:48.401Z,1.90
2022-11-01T04:03:23.073Z,2.20
2022-11-01T04:05:54.591Z,1.70
2022-11-01T04:08:28.189Z,1.30
2022-11-01T04:11:04.150Z,1.40
2022-11-01T04:13:37.489Z,1.75
2022-11-01T04:16:27.885Z,1.80
2022-11-01T04:19:16.021Z,1.80
2022-11-01T04:21:44.582Z,1.45
2022-11-01T04:24:23.574Z,1.50
2022-11-01T04:26:55.345Z,1.73
2022-11-01T04:29:24.376Z,1.75
2022-11-01T04:31:52.706Z,1.65
2022-11-01T04:34:37.503Z,1.73
2022-11-01T04:37:07.703Z,1.77
2022-11-01T04:39:37.948Z,1.23
2022-11-01T04:42:07.957Z,1.80
2022-11-01T04:44:38.097Z,1.70
2022-11-01T04:47:09.445Z,1.70
2022-11-01T04:49:43.520Z,1.92
2022-11-01T04:52:13.260Z,1.95
2022-11-01T04:54:43.906Z,2.20
2022-11-01T04:57:23.055Z,1.85
2022-11-01T04:59:54.163Z,1.90
2022-11-01T05:02:24.908Z,2.42
2022-11-01T05:04:54.066Z,2.00
2022-11-01T05:07:26.307Z,2.53
2022-11-01T05:10:01.988Z,2.00
2022-11-01T05:12:34.120Z,2.15
2022-11-01T05:15:07.921Z,2.20
2022-11-01T05:17:36.606Z,2.33
2022-11-01T05:20:05.700Z,2.47
2022-11-01T05:22:35.715Z,2.42
2022-11-01T05:25:11.742Z,3.00
2022-11-01T05:27:43.681Z,2.63
2022-11-01T05:30:15.234Z,2.55
2022-11-01T05:32:44.036Z,2.15
2022-11-01T05:35:18.753Z,2.20
2022-11-01T05:37:49.806Z,2.15
2022-11-01T05:40:18.730Z,1.90
2022-11-01T05:42:52.745Z,2.38
2022-11-01T05:45:25.372Z,2.10
2022-11-01T05:47:54.237Z,2.20
2022-11-01T05:50:23.021Z,2.80
2022-11-01T05:52:54.708Z,2.60
2022-11-01T05:55:25.178Z,2.60
2022-11-01T05:58:12.570Z,3.00
2022-11-01T06:00:51.248Z,2.70
2022-11-01T06:03:29.339Z,2.53
2022-11-01T06:06:17.626Z,2.78
2022-11-01T06:15:56.114Z,2.65
2022-11-01T06:25:27.852Z,3.40
2022-11-01T06:28:01.482Z,3.35
2022-11-01T06:30:35.133Z,3.10
2022-11-01T06:40:56.423Z,3.35
2022-11-01T06:44:02.920Z,3.25
2022-11-01T06:46:35.962Z,3.85
2022-11-01T07:03:06.935Z,3.20
2022-11-01T07:06:06.877Z,3.25
2022-11-01T07:08:40.866Z,3.58
2022-11-01T07:11:31.887Z,3.78
2022-11-01T07:14:28.403Z,3.45
2022-11-01T07:17:27.773Z,3.45
2022-11-01T07:20:58.895Z,3.00
2022-11-01T07:26:35.714Z,3.65
2022-11-01T07:32:06.931Z,3.38
2022-11-01T07:42:19.978Z,3.72
2022-11-01T07:46:04.594Z,3.25
2022-11-01T07:49:21.783Z,3.35
2022-11-01T08:10:00.399Z,3.67
2022-11-01T08:12:31.137Z,3.90
2022-11-01T08:15:04.279Z,3.70
2022-11-01T08:17:44.467Z,3.28
2022-11-01T08:20:16.733Z,3.47
2022-11-01T08:25:21.132Z,3.78
2022-11-01T08:27:54.485Z,3.60
2022-11-01T08:55:44.273Z,3.67
2022-11-01T08:58:28.189Z,3.60
2022-11-01T09:01:39.997Z,3.28
2022-11-01T09:08:13.209Z,2.90
2022-11-01T09:18:36.306Z,3.47
2022-11-01T09:22:22.645Z,3.00
2022-11-01T09:40:20.125Z,3.03
2022-11-01T10:05:47.807Z,3.70
2022-11-01T10:09:12.188Z,3.33
2022-11-01T10:12:25.529Z,3.47
2022-11-01T10:15:17.563Z,3.30
2022-11-01T10:18:01.079Z,3.35
2022-11-01T10:20:38.260Z,3.15
2022-11-01T10:23:13.816Z,3.40
2022-11-01T10:26:02.265Z,3.05
2022-11-01T10:36:28.209Z,2.90
2022-11-01T10:42:39.114Z,3.17
2022-11-01T10:50:49.681Z,2.90
2022-11-01T12:12:31.216Z,2.13
2022-11-01T12:15:07.343Z,2.35
2022-11-01T12:32:49.351Z,2.20
2022-11-01T14:19:25.586Z,2.38
2022-11-01T14:27:37.371Z,4.35
2022-11-01T14:34:09.522Z,2.20
2022-11-01T14:37:41.335Z,2.28
2022-11-01T15:08:47.184Z,2.17
2022-11-01T15:15:52.309Z,2.17
2022-11-01T15:18:23.066Z,2.88
2022-11-01T15:20:56.098Z,2.20
2022-11-01T15:23:34.167Z,2.50
2022-11-01T15:26:07.985Z,2.63
2022-11-01T15:28:42.281Z,2.25
2022-11-01T15:31:11.585Z,2.30
2022-11-01T15:33:54.530Z,2.38
2022-11-01T15:36:28.835Z,2.47
2022-11-01T15:39:03.970Z,2.60
2022-11-01T15:41:35.189Z,2.47
2022-11-01T15:44:09.571Z,2.75
2022-11-01T15:52:29.892Z,2.90
2022-11-01T15:55:06.962Z,2.30
2022-11-01T15:57:45.511Z,2.72
2022-11-01T16:00:25.020Z,2.40
2022-11-01T16:03:07.024Z,2.60
2022-11-01T16:05:45.309Z,2.58
2022-11-01T16:08:29.684Z,2.58
2022-11-01T16:11:04.086Z,3.17
2022-11-01T16:13:33.997Z,2.85
2022-11-01T16:16:05.967Z,2.75
2022-11-01T16:18:40.393Z,2.33
2022-11-01T16:21:28.414Z,3.08
2022-11-01T16:24:09.711Z,3.00
2022-11-01T16:26:56.476Z,2.72
2022-11-01T16:29:51.095Z,3.08
2022-11-01T16:32:27.336Z,2.45
2022-11-01T16:34:56.603Z,2.70
2022-11-01T16:40:54.854Z,2.95
2022-11-01T16:43:34.633Z,2.70
2022-11-01T16:50:01.058Z,2.72
2022-11-01T16:52:31.613Z,2.55
2022-11-01T16:55:20.445Z,2.30
2022-11-01T16:58:25.967Z,2.75
2022-11-01T17:00:59.249Z,2.47
2022-11-01T17:06:50.532Z,2.25
2022-11-01T17:24:12.112Z,2.78
2022-11-01T17:27:34.623Z,2.70
2022-11-01T17:36:17.076Z,3.05
2022-11-01T17:38:46.225Z,2.75
2022-11-01T17:41:21.476Z,2.83
2022-11-01T17:43:50.916Z,2.60
2022-11-01T17:46:26.609Z,2.35
2022-11-01T17:48:55.045Z,2.67
2022-11-01T17:51:30.443Z,2.75
2022-11-01T17:54:02.966Z,2.90
2022-11-01T17:56:33.651Z,2.65
2022-11-01T17:59:02.690Z,2.97
2022-11-01T18:01:31.715Z,3.03
2022-11-01T18:04:01.188Z,2.58
2022-11-01T18:06:30.804Z,2.83
2022-11-01T18:09:05.599Z,3.47
2022-11-01T18:11:50.893Z,3.05
2022-11-01T18:14:28.532Z,3.50
2022-11-01T18:17:02.411Z,3.40
2022-11-01T18:19:47.582Z,3.58
2022-11-01T18:22:29.815Z,3.90
2022-11-01T18:25:07.104Z,3.53
2022-11-01T18:27:39.089Z,2.72
2022-11-01T18:30:15.177Z,2.78
2022-11-01T18:33:04.468Z,2.80
2022-11-01T18:35:40.827Z,2.50
2022-11-01T18:38:25.932Z,2.42
2022-11-01T18:41:01.029Z,2.53
2022-11-01T18:43:33.981Z,2.78
2022-11-01T18:46:23.761Z,2.70
2022-11-01T18:48:59.780Z,3.33
2022-11-01T18:51:31.271Z,2.65
2022-11-01T18:54:24.658Z,3.28
2022-11-01T18:56:57.451Z,3.42
2022-11-01T18:59:36.733Z,2.85
2022-11-01T19:02:16.063Z,3.20
2022-11-01T19:04:46.212Z,2.97
2022-11-01T19:07:19.326Z,3.20
2022-11-01T19:09:55.087Z,2.60
2022-11-01T19:12:34.116Z,2.70
2022-11-01T19:15:24.812Z,2.65
2022-11-01T19:18:11.224Z,3.00
2022-11-01T19:20:54.240Z,2.63
2022-11-01T19:23:41.911Z,3.30
2022-11-01T19:30:09.064Z,2.78
2022-11-01T19:33:04.616Z,2.90
2022-11-01T19:35:34.384Z,2.83
2022-11-01T19:38:04.495Z,3.20
2022-11-01T19:43:17.536Z,2.97
2022-11-01T19:45:50.697Z,2.83
2022-11-01T19:51:40.127Z,3.47
2022-11-01T19:54:13.217Z,3.83
2022-11-01T19:56:44.931Z,3.50
2022-11-01T19:59:17.089Z,2.90
2022-11-01T20:01:46.869Z,3.13
2022-11-01T20:04:27.716Z,2.88
2022-11-01T20:07:01.204Z,3.58
2022-11-01T20:24:15.742Z,3.53
2022-11-01T20:43:26.455Z,2.72
2022-11-01T20:46:00.316Z,2.45
2022-11-01T20:49:53.558Z,2.78
2022-11-01T20:52:52.384Z,2.75
2022-11-01T20:55:28.821Z,2.60
2022-11-01T20:57:59.876Z,2.42
2022-11-01T21:00:28.639Z,3.10
2022-11-01T21:02:59.906Z,2.65
2022-11-01T21:05:38.771Z,2.28
2022-11-01T21:16:35.468Z,2.13
2022-11-01T21:19:10.444Z,2.17
2022-11-01T21:21:49.714Z,2.00
2022-11-01T21:24:34.948Z,2.25
2022-11-01T21:27:25.515Z,2.08
2022-11-01T21:30:01.580Z,2.22
2022-11-01T21:32:44.131Z,2.72
2022-11-01T21:35:40.676Z,2.70
2022-11-01T21:38:46.775Z,2.22
2022-11-01T21:41:36.712Z,2.33
2022-11-01T21:44:24.500Z,2.10
2022-11-01T21:46:59.633Z,1.95
2022-11-01T21:49:35.081Z,2.22
2022-11-01T21:52:06.482Z,2.03
2022-11-01T21:54:37.336Z,2.10
2022-11-01T21:57:08.216Z,1.48
2022-11-01T21:59:37.125Z,1.73
2022-11-01T22:02:07.533Z,1.50
2022-11-01T22:04:37.339Z,1.80
2022-11-01T22:07:08.170Z,1.50
2022-11-01T22:09:36.694Z,1.50
2022-11-01T22:12:06.165Z,1.35
2022-11-01T22:14:34.421Z,1.20
2022-11-01T22:17:02.604Z,1.48
2022-11-01T22:19:30.741Z,1.13
2022-11-01T22:22:00.424Z,1.50
2022-11-01T22:24:28.546Z,1.25
2022-11-01T22:26:56.694Z,1.50
2022-11-01T22:29:24.843Z,1.13
2022-11-01T22:31:52.976Z,1.33
2022-11-01T22:34:21.449Z,1.58
2022-11-01T22:36:50.182Z,1.52
2022-11-01T22:39:23.438Z,1.70
2022-11-01T22:41:51.773Z,1.77
2022-11-01T22:44:26.594Z,2.10
2022-11-01T22:46:58.937Z,1.67
2022-11-01T22:49:30.162Z,2.22
2022-11-01T22:52:03.544Z,2.10
2022-11-01T22:54:40.058Z,2.67
2022-11-01T22:57:17.776Z,1.80
2022-11-01T22:59:59.933Z,2.90
2022-11-01T23:03:35.149Z,2.17
2022-11-01T23:06:18.356Z,2.17
2022-11-01T23:08:47.199Z,2.20
2022-11-01T23:11:45.944Z,2.42
2022-11-01T23:14:36.776Z,2.28
2022-11-01T23:17:22.513Z,2.55
2022-11-01T23:19:58.009Z,2.60
2022-11-01T23:22:31.803Z,2.22
2022-11-01T23:25:00.346Z,2.38
2022-11-01T23:27:30.989Z,2.50
2022-11-01T23:30:02.663Z,2.55
2022-11-01T23:32:31.843Z,3.28
2022-11-01T23:35:12.016Z,2.92
2022-11-01T23:37:40.688Z,3.05
2022-11-01T23:40:16.410Z,3.10
2022-11-01T23:42:46.296Z,2.75
2022-11-01T23:45:29.730Z,3.33
2022-11-01T23:47:58.724Z,3.20
2022-11-01T23:50:31.158Z,2.70
2022-11-01T23:53:02.383Z,3.22
2022-11-01T23:55:33.914Z,3.80
2022-11-01T23:58:06.727Z,2.90
